Time;durP1;ratioP1;P1;durP2;ratioP2;P2;SDS_P1;SDS_P2;PMS_P1;PMS_P2;Temp;Humidity;BMP_temperature;BMP_pressure;BME280_temperature;BME280_humidity;BME280_pressure;Samples;Min_cycle;Max_cycle;Signal;HPM_P1;HPM_P2
2023/03/07 00:01:38;;;;;;;58.58;24.02;;;;;;;;;;5073894;28;20075;-77
2023/03/07 00:04:03;;;;;;;65.43;25.88;;;;;;;;;;5073711;28;20028;-77
2023/03/07 00:06:29;;;;;;;69.50;26.50;;;;;;;;;;5056043;28;20110;-77
2023/03/07 00:08:56;;;;;;;74.82;28.70;;;;;;;;;;5072191;28;20480;-77
2023/03/07 00:11:22;;;;;;;165.27;50.42;;;;;;;;;;5039428;28;20028;-77
2023/03/07 00:13:48;;;;;;;93.10;31.63;;;;;;;;;;5072467;28;20365;-77
2023/03/07 00:16:14;;;;;;;68.97;25.80;;;;;;;;;;5056091;28;20035;-77
2023/03/07 00:18:40;;;;;;;60.50;25.45;;;;;;;;;;5055842;28;20036;-77
2023/03/07 00:21:08;;;;;;;72.20;28.95;;;;;;;;;;5039081;28;20032;-76
2023/03/07 00:23:34;;;;;;;67.63;25.88;;;;;;;;;;5072203;28;20159;-77
2023/03/07 00:26:01;;;;;;;87.28;30.50;;;;;;;;;;5039046;28;20040;-76
2023/03/07 00:28:27;;;;;;;71.55;27.00;;;;;;;;;;5052807;28;20037;-76
2023/03/07 00:30:53;;;;;;;78.53;28.70;;;;;;;;;;5055473;28;20111;-77
2023/03/07 00:33:18;;;;;;;64.75;25.48;;;;;;;;;;5055738;28;20042;-77
2023/03/07 00:35:44;;;;;;;81.32;27.65;;;;;;;;;;5071609;28;20025;-77
2023/03/07 00:38:09;;;;;;;90.43;30.88;;;;;;;;;;5072964;28;20033;-77
2023/03/07 00:40:34;;;;;;;82.90;30.00;;;;;;;;;;5072152;28;20036;-77
2023/03/07 00:43:00;;;;;;;73.82;28.02;;;;;;;;;;5072230;28;20032;-77
2023/03/07 00:45:25;;;;;;;77.78;28.02;;;;;;;;;;5072147;28;20024;-76
2023/03/07 00:47:51;;;;;;;83.03;30.67;;;;;;;;;;5072175;28;20082;-77
2023/03/07 00:50:16;;;;;;;84.22;30.17;;;;;;;;;;5072402;28;20374;-77
2023/03/07 00:52:42;;;;;;;82.70;27.95;;;;;;;;;;5072950;28;20028;-77
2023/03/07 00:55:08;;;;;;;77.68;26.70;;;;;;;;;;5072151;28;20091;-76
2023/03/07 00:57:33;;;;;;;73.80;26.67;;;;;;;;;;5055538;28;20394;-77
2023/03/07 00:59:58;;;;;;;68.90;26.67;;;;;;;;;;5073282;28;20373;-76
2023/03/07 01:02:24;;;;;;;74.43;28.05;;;;;;;;;;5073431;28;20123;-76
2023/03/07 01:04:49;;;;;;;69.47;26.13;;;;;;;;;;5071966;28;20025;-77
2023/03/07 01:07:15;;;;;;;76.00;26.77;;;;;;;;;;5072873;28;20032;-77
2023/03/07 01:09:40;;;;;;;77.45;27.95;;;;;;;;;;5073133;28;20024;-77
2023/03/07 01:12:06;;;;;;;69.40;27.55;;;;;;;;;;5072000;28;20028;-77
2023/03/07 01:14:32;;;;;;;77.03;28.25;;;;;;;;;;5055534;28;20032;-77
2023/03/07 01:16:57;;;;;;;83.40;29.00;;;;;;;;;;5073730;28;20063;-77
2023/03/07 01:19:23;;;;;;;80.15;29.60;;;;;;;;;;5075656;28;20035;-77
2023/03/07 01:21:48;;;;;;;78.30;28.27;;;;;;;;;;5076499;28;20033;-76
2023/03/07 01:24:14;;;;;;;76.13;28.38;;;;;;;;;;5075384;28;20029;-77
2023/03/07 01:26:40;;;;;;;71.75;26.85;;;;;;;;;;5076651;28;20037;-79
2023/03/07 01:29:05;;;;;;;74.55;28.15;;;;;;;;;;5071579;28;20047;-76
2023/03/07 01:31:31;;;;;;;87.97;33.05;;;;;;;;;;5058356;28;20036;-76
2023/03/07 01:33:56;;;;;;;89.68;34.60;;;;;;;;;;5075348;28;20448;-77
2023/03/07 01:36:30;;;;;;;88.47;35.10;;;;;;;;;;5058310;28;20036;-77
2023/03/07 01:39:05;;;;;;;90.38;35.63;;;;;;;;;;5059159;28;20033;-77
2023/03/07 01:41:36;;;;;;;89.35;34.35;;;;;;;;;;5075188;28;20035;-77
2023/03/07 01:44:04;;;;;;;;;;;;;;;;;;5042780;28;20102;-76
2023/03/07 01:46:41;;;;;;;92.88;34.83;;;;;;;;;;5058825;28;19971;-76
2023/03/07 01:49:21;;;;;;;93.10;36.55;;;;;;;;;;5075050;28;20152;-77
2023/03/07 01:51:50;;;;;;;100.20;37.42;;;;;;;;;;5058333;28;20056;-77
2023/03/07 01:54:16;;;;;;;95.60;37.03;;;;;;;;;;5058446;28;20364;-77
2023/03/07 01:56:42;;;;;;;103.70;39.00;;;;;;;;;;5058405;28;20538;-77
2023/03/07 01:59:07;;;;;;;96.20;36.80;;;;;;;;;;5058224;28;20051;-77
2023/03/07 02:01:32;;;;;;;102.90;37.38;;;;;;;;;;5058449;28;20747;-77
2023/03/07 02:04:16;;;;;;;91.00;37.08;;;;;;;;;;5057839;28;20027;-77
2023/03/07 02:06:41;;;;;;;98.05;37.33;;;;;;;;;;5074957;28;20028;-78
2023/03/07 02:09:12;;;;;;;101.00;40.67;;;;;;;;;;5075770;28;20090;-77
2023/03/07 02:11:39;;;;;;;110.60;42.00;;;;;;;;;;5058509;28;20023;-77
2023/03/07 02:14:04;;;;;;;102.97;39.83;;;;;;;;;;5041521;28;20037;-77
2023/03/07 02:16:30;;;;;;;113.07;41.42;;;;;;;;;;5074602;28;20032;-76
2023/03/07 02:18:55;;;;;;;107.03;40.97;;;;;;;;;;5057500;28;20114;-77
2023/03/07 02:21:45;;;;;;;107.03;40.75;;;;;;;;;;5074390;28;20033;-77
2023/03/07 02:24:32;;;;;;;106.97;42.42;;;;;;;;;;5057549;28;20032;-77
2023/03/07 02:26:58;;;;;;;104.20;41.30;;;;;;;;;;5074089;28;20468;-77
2023/03/07 02:29:23;;;;;;;115.75;42.47;;;;;;;;;;5074693;28;20056;-77
2023/03/07 02:31:49;;;;;;;107.78;40.85;;;;;;;;;;5070102;28;20531;-77
2023/03/07 02:34:18;;;;;;;100.68;38.70;;;;;;;;;;5073917;28;20039;-77
2023/03/07 02:36:43;;;;;;;98.82;38.75;;;;;;;;;;5074000;28;20035;-77
2023/03/07 02:39:09;;;;;;;92.13;34.70;;;;;;;;;;5057586;28;20032;-77
2023/03/07 02:41:34;;;;;;;81.18;29.48;;;;;;;;;;5075117;28;20028;-77
2023/03/07 02:44:00;;;;;;;82.68;30.17;;;;;;;;;;5073879;28;20058;-77
2023/03/07 02:46:25;;;;;;;88.78;31.05;;;;;;;;;;5075021;28;20469;-77
2023/03/07 02:48:51;;;;;;;83.53;30.33;;;;;;;;;;5073439;28;20135;-77
2023/03/07 02:51:16;;;;;;;82.47;29.23;;;;;;;;;;5040759;28;20056;-77
2023/03/07 02:53:41;;;;;;;85.63;33.20;;;;;;;;;;5074592;28;20020;-77
2023/03/07 02:56:07;;;;;;;91.22;32.38;;;;;;;;;;5074654;28;20432;-77
2023/03/07 02:58:32;;;;;;;77.95;31.02;;;;;;;;;;5074838;28;20081;-77
2023/03/07 03:00:58;;;;;;;89.93;33.17;;;;;;;;;;5074909;28;20020;-77
2023/03/07 03:03:24;;;;;;;92.78;33.63;;;;;;;;;;5056665;28;20085;-77
2023/03/07 03:05:49;;;;;;;99.55;38.00;;;;;;;;;;5058096;28;20055;-77
2023/03/07 03:08:14;;;;;;;111.13;40.55;;;;;;;;;;5058048;28;20055;-76
2023/03/07 03:10:40;;;;;;;93.22;34.58;;;;;;;;;;5077255;28;20035;-78
2023/03/07 03:13:06;;;;;;;88.18;33.40;;;;;;;;;;5064169;28;20033;-76
2023/03/07 03:15:31;;;;;;;90.13;33.00;;;;;;;;;;5081365;28;20047;-76
2023/03/07 03:17:57;;;;;;;96.70;35.47;;;;;;;;;;5075366;28;20029;-77
2023/03/07 03:20:24;;;;;;;96.82;36.13;;;;;;;;;;5061734;28;20828;-77
2023/03/07 03:22:50;;;;;;;103.40;38.90;;;;;;;;;;5056845;28;20024;-77
2023/03/07 03:25:16;;;;;;;90.45;35.58;;;;;;;;;;5057147;28;20533;-77
2023/03/07 03:27:41;;;;;;;109.70;38.25;;;;;;;;;;5073562;28;20032;-77
2023/03/07 03:30:08;;;;;;;102.10;37.75;;;;;;;;;;5039941;28;20066;-77
2023/03/07 03:32:36;;;;;;;102.72;36.80;;;;;;;;;;5068819;28;20425;-77
2023/03/07 03:35:01;;;;;;;108.70;38.78;;;;;;;;;;5072621;28;20343;-77
2023/03/07 03:37:27;;;;;;;97.18;37.10;;;;;;;;;;5056301;28;20040;-77
2023/03/07 03:39:53;;;;;;;107.22;39.20;;;;;;;;;;5072327;28;20450;-77
2023/03/07 03:42:18;;;;;;;123.88;47.60;;;;;;;;;;5074051;28;20123;-77
2023/03/07 03:44:44;;;;;;;117.22;44.05;;;;;;;;;;5072858;28;20495;-77
2023/03/07 03:47:09;;;;;;;113.50;42.20;;;;;;;;;;5073733;28;20458;-76
2023/03/07 03:49:34;;;;;;;113.85;41.05;;;;;;;;;;5072870;28;20071;-77
2023/03/07 03:52:00;;;;;;;115.13;43.35;;;;;;;;;;5074256;28;20119;-78
2023/03/07 03:54:25;;;;;;;120.50;44.08;;;;;;;;;;5072727;28;20028;-77
2023/03/07 03:56:52;;;;;;;109.22;41.90;;;;;;;;;;5055812;28;20118;-77
2023/03/07 03:59:18;;;;;;;115.78;41.20;;;;;;;;;;5073893;28;20038;-77
2023/03/07 04:01:45;;;;;;;104.65;37.63;;;;;;;;;;5072847;28;20049;-77
2023/03/07 04:04:10;;;;;;;108.40;39.25;;;;;;;;;;5073936;28;20033;-77
2023/03/07 04:06:35;;;;;;;110.45;37.83;;;;;;;;;;5074226;28;20035;-77
2023/03/07 04:09:03;;;;;;;105.75;36.90;;;;;;;;;;5072559;28;20036;-77
2023/03/07 04:11:29;;;;;;;102.75;36.13;;;;;;;;;;5039798;28;20462;-77
2023/03/07 04:13:54;;;;;;;105.15;38.53;;;;;;;;;;5072523;28;20033;-77
2023/03/07 04:16:21;;;;;;;109.03;39.00;;;;;;;;;;5055766;28;20446;-77
2023/03/07 04:18:49;;;;;;;111.35;38.00;;;;;;;;;;5072595;28;20036;-77
2023/03/07 04:21:14;;;;;;;125.80;42.38;;;;;;;;;;5072515;28;20123;-77
2023/03/07 04:23:39;;;;;;;125.50;45.60;;;;;;;;;;5055758;28;20410;-76
2023/03/07 04:26:05;;;;;;;113.50;39.80;;;;;;;;;;5073655;28;20036;-76
2023/03/07 04:28:45;;;;;;;111.80;40.40;;;;;;;;;;5055901;28;20479;-77
2023/03/07 04:31:17;;;;;;;111.97;41.15;;;;;;;;;;5073256;28;20032;-77
2023/03/07 04:33:43;;;;;;;124.38;47.17;;;;;;;;;;5072303;28;20123;-77
2023/03/07 04:36:10;;;;;;;125.13;50.33;;;;;;;;;;5068157;28;20103;-77
2023/03/07 04:38:37;;;;;;;125.88;46.30;;;;;;;;;;5072348;28;20519;-77
2023/03/07 04:41:04;;;;;;;120.45;45.03;;;;;;;;;;5072380;28;20028;-77
2023/03/07 04:43:29;;;;;;;126.63;44.67;;;;;;;;;;5072212;28;20343;-77
2023/03/07 04:45:55;;;;;;;120.53;42.95;;;;;;;;;;5072492;28;20173;-77
2023/03/07 04:48:20;;;;;;;123.57;41.67;;;;;;;;;;5055499;28;20098;-77
2023/03/07 04:50:49;;;;;;;117.32;43.78;;;;;;;;;;5056939;28;20028;-77
2023/03/07 04:53:16;;;;;;;132.10;45.60;;;;;;;;;;5059435;28;20392;-76
2023/03/07 04:55:41;;;;;;;126.47;44.05;;;;;;;;;;5075949;28;20048;-77
2023/03/07 04:58:11;;;;;;;129.43;45.85;;;;;;;;;;5075607;28;20040;-77
2023/03/07 05:00:40;;;;;;;133.48;47.63;;;;;;;;;;5076045;28;20021;-77
2023/03/07 05:03:07;;;;;;;141.27;46.38;;;;;;;;;;5076155;28;20426;-77
2023/03/07 05:05:32;;;;;;;141.68;49.28;;;;;;;;;;5075973;28;20446;-77
2023/03/07 05:07:57;;;;;;;145.65;49.97;;;;;;;;;;5076888;28;20086;-77
2023/03/07 05:10:23;;;;;;;144.15;49.13;;;;;;;;;;5072881;28;20474;-76
2023/03/07 05:12:48;;;;;;;145.38;51.42;;;;;;;;;;5075570;28;20025;-77
2023/03/07 05:15:14;;;;;;;140.38;51.40;;;;;;;;;;5075539;28;20370;-77
2023/03/07 05:17:39;;;;;;;139.63;52.08;;;;;;;;;;5075428;28;20036;-77
2023/03/07 05:20:05;;;;;;;141.70;51.15;;;;;;;;;;5076607;28;20024;-77
2023/03/07 05:22:31;;;;;;;124.88;46.90;;;;;;;;;;5077244;28;20108;-77
2023/03/07 05:24:57;;;;;;;130.25;46.65;;;;;;;;;;5075241;28;20429;-77
2023/03/07 05:27:22;;;;;;;131.15;47.05;;;;;;;;;;5074950;28;20115;-77
2023/03/07 05:29:48;;;;;;;127.97;45.72;;;;;;;;;;5075491;28;20082;-80
2023/03/07 05:32:14;;;;;;;121.85;44.08;;;;;;;;;;5058866;28;20577;-81
2023/03/07 05:34:39;;;;;;;112.40;38.60;;;;;;;;;;5042515;28;20299;-82
2023/03/07 05:37:05;;;;;;;110.72;38.40;;;;;;;;;;5058581;28;20048;-83
2023/03/07 05:39:30;;;;;;;105.90;36.78;;;;;;;;;;5075178;28;20139;-82
2023/03/07 05:41:56;;;;;;;114.93;37.15;;;;;;;;;;5071784;28;20315;-82
2023/03/07 05:44:25;;;;;;;104.30;36.28;;;;;;;;;;5061049;28;20040;-81
2023/03/07 05:46:50;;;;;;;99.60;36.05;;;;;;;;;;5062496;28;20089;-83
2023/03/07 05:49:16;;;;;;;103.43;37.15;;;;;;;;;;5076650;28;20063;-83
2023/03/07 05:51:43;;;;;;;103.05;35.85;;;;;;;;;;5079654;28;20465;-83
2023/03/07 05:54:09;;;;;;;101.07;36.28;;;;;;;;;;5067146;28;20060;-80
2023/03/07 05:56:38;;;;;;;102.18;34.42;;;;;;;;;;5047865;28;20068;-77
2023/03/07 05:59:06;;;;;;;103.95;36.92;;;;;;;;;;5066167;28;20051;-79
2023/03/07 06:01:36;;;;;;;95.43;35.25;;;;;;;;;;5052613;28;20112;-78
2023/03/07 06:04:16;;;;;;;122.85;38.22;;;;;;;;;;5066253;28;20020;-78
2023/03/07 06:06:42;;;;;;;134.40;43.17;;;;;;;;;;5064956;28;20025;-78
2023/03/07 06:09:08;;;;;;;217.20;67.07;;;;;;;;;;5069080;28;20089;-78
2023/03/07 06:11:33;;;;;;;122.13;41.28;;;;;;;;;;5068784;28;20040;-78
2023/03/07 06:14:02;;;;;;;112.20;41.90;;;;;;;;;;5075235;28;20029;-77
2023/03/07 06:16:28;;;;;;;131.00;44.78;;;;;;;;;;5106917;28;20031;-78
2023/03/07 06:18:54;;;;;;;130.70;42.90;;;;;;;;;;5091391;28;20032;-78
2023/03/07 06:21:22;;;;;;;174.93;66.90;;;;;;;;;;5068042;28;20072;-79
2023/03/07 06:23:47;;;;;;;131.23;48.60;;;;;;;;;;5073853;28;20031;-79
2023/03/07 06:26:13;;;;;;;114.85;41.17;;;;;;;;;;5048311;28;20020;-79
2023/03/07 06:28:39;;;;;;;116.63;37.58;;;;;;;;;;5065445;28;20060;-81
2023/03/07 06:31:13;;;;;;;107.05;35.60;;;;;;;;;;5072005;28;20071;-78
2023/03/07 06:33:39;;;;;;;107.47;36.03;;;;;;;;;;5066139;28;20032;-78
2023/03/07 06:36:06;;;;;;;105.05;36.20;;;;;;;;;;5072176;28;20036;-77
2023/03/07 06:38:31;;;;;;;111.18;38.38;;;;;;;;;;5071832;28;20039;-78
2023/03/07 06:40:58;;;;;;;117.25;37.88;;;;;;;;;;5062305;28;20382;-78
2023/03/07 06:43:23;;;;;;;120.97;40.95;;;;;;;;;;5071568;28;20130;-77
2023/03/07 06:45:55;;;;;;;116.28;38.22;;;;;;;;;;5061175;28;21999;-77
2023/03/07 06:48:20;;;;;;;125.50;41.33;;;;;;;;;;5064064;28;20489;-78
2023/03/07 06:50:48;;;;;;;108.32;36.00;;;;;;;;;;5064391;28;20040;-78
2023/03/07 06:53:18;;;;;;;118.32;38.33;;;;;;;;;;5072814;28;20037;-79
2023/03/07 06:55:48;;;;;;;105.50;36.92;;;;;;;;;;5068529;28;20385;-79
2023/03/07 06:58:15;;;;;;;;;;;;;;;;;;5058215;28;20032;-80
2023/03/07 07:00:41;;;;;;;109.00;35.83;;;;;;;;;;5059411;28;19920;-80
2023/03/07 07:03:06;;;;;;;95.45;34.95;;;;;;;;;;5061622;28;20044;-79
2023/03/07 07:05:31;;;;;;;97.63;35.13;;;;;;;;;;5066781;28;20059;-78
2023/03/07 07:07:57;;;;;;;108.28;36.55;;;;;;;;;;5068248;28;20136;-79
2023/03/07 07:10:23;;;;;;;112.28;37.70;;;;;;;;;;5067926;28;20034;-79
2023/03/07 07:12:53;;;;;;;117.65;39.85;;;;;;;;;;5058004;28;20016;-79
2023/03/07 07:15:18;;;;;;;;;;;;;;;;;;5070678;28;20121;-79
2023/03/07 07:17:44;;;;;;;120.70;41.85;;;;;;;;;;5067876;28;20199;-79
2023/03/07 07:20:10;;;;;;;134.43;45.33;;;;;;;;;;5046931;28;20096;-77
2023/03/07 07:22:45;;;;;;;102.05;41.67;;;;;;;;;;5066014;28;20042;-80
2023/03/07 07:25:11;;;;;;;85.97;38.03;;;;;;;;;;5057977;28;20032;-79
2023/03/07 07:27:36;;;;;;;73.13;34.85;;;;;;;;;;5065708;28;20040;-78
2023/03/07 07:30:03;;;;;;;71.68;33.97;;;;;;;;;;5064847;28;20042;-80
2023/03/07 07:32:28;;;;;;;63.88;32.08;;;;;;;;;;5063157;28;20034;-79
2023/03/07 07:34:54;;;;;;;63.63;30.83;;;;;;;;;;5070111;28;20107;-78
2023/03/07 07:37:20;;;;;;;62.05;30.60;;;;;;;;;;5071038;28;20066;-79
2023/03/07 07:39:49;;;;;;;66.05;33.25;;;;;;;;;;5049895;28;20232;-78
2023/03/07 07:42:19;;;;;;;71.53;33.72;;;;;;;;;;5034174;28;20544;-78
2023/03/07 07:44:47;;;;;;;65.45;32.85;;;;;;;;;;5073876;28;20060;-79
2023/03/07 07:47:12;;;;;;;66.25;33.53;;;;;;;;;;5076334;28;20338;-80
2023/03/07 07:49:38;;;;;;;66.55;33.28;;;;;;;;;;5072726;28;20123;-79
2023/03/07 07:52:04;;;;;;;71.70;34.55;;;;;;;;;;5063647;28;20023;-80
2023/03/07 07:54:29;;;;;;;70.35;34.08;;;;;;;;;;5066136;28;20031;-78
2023/03/07 07:56:56;;;;;;;83.45;37.75;;;;;;;;;;5065776;28;20044;-79
2023/03/07 07:59:32;;;;;;;68.65;34.00;;;;;;;;;;5063011;28;20025;-80
2023/03/07 08:02:02;;;;;;;62.00;33.05;;;;;;;;;;5055374;28;20079;-79
2023/03/07 08:05:05;;;;;;;60.90;31.27;;;;;;;;;;5077777;28;20032;-79
2023/03/07 08:07:39;;;;;;;74.07;33.88;;;;;;;;;;5065914;28;20105;-79
2023/03/07 08:10:05;;;;;;;58.92;31.20;;;;;;;;;;5065935;28;20032;-82
2023/03/07 08:12:31;;;;;;;65.03;31.55;;;;;;;;;;5062867;28;20063;-81
2023/03/07 08:14:56;;;;;;;65.68;31.30;;;;;;;;;;5066143;28;20474;-81
2023/03/07 08:17:25;;;;;;;63.28;31.67;;;;;;;;;;5101900;28;20034;-81
2023/03/07 08:20:00;;;;;;;64.40;31.38;;;;;;;;;;5072777;28;20382;-79
2023/03/07 08:22:26;;;;;;;63.33;32.47;;;;;;;;;;5076285;28;20060;-79
2023/03/07 08:24:51;;;;;;;60.97;32.97;;;;;;;;;;5066042;28;20593;-77
2023/03/07 08:27:17;;;;;;;65.22;32.75;;;;;;;;;;5068035;28;20104;-77
2023/03/07 08:29:42;;;;;;;67.13;32.33;;;;;;;;;;5071613;28;20576;-79
2023/03/07 08:32:08;;;;;;;63.78;31.55;;;;;;;;;;5072962;28;20086;-78
2023/03/07 08:34:35;;;;;;;63.67;30.63;;;;;;;;;;5048086;28;20359;-78
2023/03/07 08:37:00;;;;;;;63.10;30.70;;;;;;;;;;5063403;28;20033;-80
2023/03/07 08:39:26;;;;;;;63.00;31.35;;;;;;;;;;5063595;28;20025;-80
2023/03/07 08:41:54;;;;;;;59.97;31.23;;;;;;;;;;5055662;28;20029;-80
2023/03/07 08:44:19;;;;;;;59.55;31.13;;;;;;;;;;5044636;28;20036;-79
2023/03/07 08:46:44;;;;;;;61.20;31.00;;;;;;;;;;5059977;28;20036;-79
2023/03/07 08:49:13;;;;;;;66.65;32.65;;;;;;;;;;5055367;28;20033;-79
2023/03/07 08:51:39;;;;;;;58.92;33.17;;;;;;;;;;5084914;28;20252;-81
2023/03/07 08:54:07;;;;;;;68.10;36.35;;;;;;;;;;5039486;28;20028;-80
2023/03/07 08:56:32;;;;;;;63.90;31.45;;;;;;;;;;5062798;28;20984;-79
2023/03/07 08:58:58;;;;;;;63.22;31.45;;;;;;;;;;5065498;28;20032;-79
2023/03/07 09:01:24;;;;;;;77.75;36.28;;;;;;;;;;5061042;28;20111;-79
2023/03/07 09:03:49;;;;;;;69.78;34.40;;;;;;;;;;5068096;28;20025;-79
2023/03/07 09:06:16;;;;;;;75.35;33.75;;;;;;;;;;5068158;28;20544;-80
2023/03/07 09:08:42;;;;;;;82.03;34.90;;;;;;;;;;5067431;28;20040;-79
2023/03/07 09:11:08;;;;;;;74.45;35.80;;;;;;;;;;5070264;28;20041;-79
2023/03/07 09:13:35;;;;;;;66.93;33.67;;;;;;;;;;5082174;28;20037;-80
2023/03/07 09:16:03;;;;;;;85.32;40.13;;;;;;;;;;5072201;28;20040;-77
2023/03/07 09:18:32;;;;;;;74.90;36.47;;;;;;;;;;5073843;28;20139;-79
2023/03/07 09:21:00;;;;;;;77.95;37.70;;;;;;;;;;5062256;28;20127;-78
2023/03/07 09:23:25;;;;;;;77.07;35.67;;;;;;;;;;5074579;28;20131;-77
2023/03/07 09:25:51;;;;;;;79.20;36.15;;;;;;;;;;5074080;28;20152;-80
2023/03/07 09:28:16;;;;;;;83.07;37.42;;;;;;;;;;5056246;28;20366;-79
2023/03/07 09:30:42;;;;;;;78.10;36.25;;;;;;;;;;5073203;28;20029;-79
2023/03/07 09:33:07;;;;;;;81.20;35.72;;;;;;;;;;5076529;28;20042;-78
2023/03/07 09:35:33;;;;;;;88.80;37.03;;;;;;;;;;5073686;28;20036;-79
2023/03/07 09:37:58;;;;;;;81.45;35.10;;;;;;;;;;5078497;28;20021;-78
2023/03/07 09:40:25;;;;;;;78.32;35.30;;;;;;;;;;5059570;28;20036;-77
2023/03/07 09:43:14;;;;;;;77.30;34.72;;;;;;;;;;5086230;28;20390;-79
2023/03/07 09:46:04;;;;;;;77.63;32.75;;;;;;;;;;5071845;28;20097;-78
2023/03/07 09:49:04;;;;;;;86.63;37.03;;;;;;;;;;5073188;28;20048;-79
2023/03/07 09:51:42;;;;;;;84.85;34.50;;;;;;;;;;5081148;28;20051;-82
2023/03/07 09:54:19;;;;;;;75.00;32.25;;;;;;;;;;5035313;28;20507;-78
2023/03/07 09:56:51;;;;;;;86.35;34.25;;;;;;;;;;5086046;28;20092;-79
2023/03/07 09:59:29;;;;;;;89.57;34.65;;;;;;;;;;5074996;28;20093;-79
2023/03/07 10:02:04;;;;;;;84.75;35.22;;;;;;;;;;5097576;28;20478;-78
2023/03/07 10:04:37;;;;;;;81.45;33.08;;;;;;;;;;5047673;28;20174;-77
2023/03/07 10:07:02;;;;;;;83.55;32.90;;;;;;;;;;5061259;28;20115;-78
2023/03/07 10:09:28;;;;;;;78.97;32.47;;;;;;;;;;5075083;28;20131;-79
2023/03/07 10:12:33;;;;;;;83.38;33.45;;;;;;;;;;5097107;28;20024;-78
2023/03/07 10:15:17;;;;;;;79.25;32.60;;;;;;;;;;5061035;28;20033;-80
2023/03/07 10:18:11;;;;;;;76.43;31.30;;;;;;;;;;5076129;28;20033;-79
2023/03/07 10:20:58;;;;;;;76.63;33.55;;;;;;;;;;5057643;28;20099;-79
2023/03/07 10:23:27;;;;;;;82.30;32.58;;;;;;;;;;5072124;28;20017;-78
2023/03/07 10:25:57;;;;;;;87.32;34.30;;;;;;;;;;5073062;28;20032;-78
2023/03/07 10:28:27;;;;;;;82.18;32.28;;;;;;;;;;5072062;28;20037;-80
2023/03/07 10:31:36;;;;;;;79.75;32.25;;;;;;;;;;5073379;28;20028;-79
2023/03/07 10:34:11;;;;;;;81.20;32.03;;;;;;;;;;5072865;28;20115;-80
2023/03/07 10:36:46;;;;;;;70.45;30.58;;;;;;;;;;5069246;28;20020;-79
2023/03/07 10:39:24;;;;;;;75.65;31.65;;;;;;;;;;5054980;28;20040;-80
2023/03/07 10:41:58;;;;;;;79.72;30.90;;;;;;;;;;5059958;28;20036;-80
2023/03/07 10:44:27;;;;;;;79.53;32.70;;;;;;;;;;5053733;28;20036;-78
2023/03/07 10:46:58;;;;;;;78.90;32.47;;;;;;;;;;5056936;28;20029;-79
2023/03/07 10:49:29;;;;;;;76.15;33.28;;;;;;;;;;5066900;28;20032;-78
2023/03/07 10:52:04;;;;;;;81.57;34.15;;;;;;;;;;5047416;28;20043;-79
2023/03/07 10:54:34;;;;;;;74.88;32.50;;;;;;;;;;5055401;28;20037;-79
2023/03/07 10:57:15;;;;;;;74.15;32.38;;;;;;;;;;5061882;28;20039;-80
2023/03/07 10:59:48;;;;;;;76.93;33.85;;;;;;;;;;5052150;28;20055;-78
2023/03/07 11:02:28;;;;;;;84.20;35.40;;;;;;;;;;5087795;28;20037;-79
2023/03/07 11:04:53;;;;;;;93.95;38.08;;;;;;;;;;5061937;28;20028;-80
2023/03/07 11:07:39;;;;;;;88.13;36.40;;;;;;;;;;5068102;28;20469;-78
2023/03/07 11:10:42;;;;;;;84.43;34.38;;;;;;;;;;5071134;28;20150;-80
2023/03/07 11:13:21;;;;;;;85.72;35.40;;;;;;;;;;5065724;28;20040;-79
2023/03/07 11:15:47;;;;;;;86.20;34.33;;;;;;;;;;5069308;28;20123;-79
2023/03/07 11:18:33;;;;;;;83.63;33.30;;;;;;;;;;5071624;28;20295;-78
2023/03/07 11:20:58;;;;;;;70.97;30.98;;;;;;;;;;5070834;28;20039;-77
2023/03/07 11:23:25;;;;;;;75.32;29.30;;;;;;;;;;5063741;28;20028;-78
2023/03/07 11:25:52;;;;;;;74.20;29.98;;;;;;;;;;5079944;28;20040;-79
2023/03/07 11:28:34;;;;;;;69.80;28.15;;;;;;;;;;5066344;28;20036;-78
2023/03/07 11:31:11;;;;;;;70.03;26.92;;;;;;;;;;5070386;28;20032;-79
2023/03/07 11:33:37;;;;;;;71.55;27.33;;;;;;;;;;5075253;28;20031;-80
2023/03/07 11:36:27;;;;;;;64.03;27.23;;;;;;;;;;5075011;28;20029;-79
2023/03/07 11:39:16;;;;;;;67.55;26.40;;;;;;;;;;5071523;28;20025;-80
2023/03/07 11:42:09;;;;;;;64.07;24.75;;;;;;;;;;5073684;28;20115;-79
2023/03/07 11:44:48;;;;;;;61.67;24.52;;;;;;;;;;5067292;28;20143;-79
2023/03/07 11:47:49;;;;;;;52.85;22.23;;;;;;;;;;5073814;28;20036;-80
2023/03/07 11:50:23;;;;;;;51.20;22.30;;;;;;;;;;5049847;28;20051;-79
2023/03/07 11:53:06;;;;;;;62.05;22.73;;;;;;;;;;5055967;28;20466;-78
2023/03/07 11:55:37;;;;;;;47.75;20.85;;;;;;;;;;5069649;28;20107;-78
2023/03/07 11:58:33;;;;;;;54.30;21.67;;;;;;;;;;5066412;28;20637;-79
2023/03/07 12:01:14;;;;;;;57.03;22.20;;;;;;;;;;5067571;28;20067;-78
2023/03/07 12:03:53;;;;;;;63.10;25.13;;;;;;;;;;5068598;28;20036;-80
2023/03/07 12:06:34;;;;;;;62.23;23.30;;;;;;;;;;5065679;28;20021;-80
2023/03/07 12:09:31;;;;;;;61.55;23.83;;;;;;;;;;5067587;28;20446;-79
2023/03/07 12:12:15;;;;;;;58.42;24.08;;;;;;;;;;5004894;28;20056;-79
2023/03/07 12:15:18;;;;;;;63.78;22.45;;;;;;;;;;5049457;28;20056;-79
2023/03/07 12:18:12;;;;;;;73.22;25.08;;;;;;;;;;5057089;28;20063;-77
2023/03/07 12:21:09;;;;;;;48.72;18.92;;;;;;;;;;5062350;28;20029;-79
2023/03/07 12:23:50;;;;;;;53.60;18.92;;;;;;;;;;5067405;28;20032;-80
2023/03/07 12:26:35;;;;;;;49.28;20.05;;;;;;;;;;5085912;28;20041;-79
2023/03/07 12:29:05;;;;;;;43.83;17.60;;;;;;;;;;5053295;28;20044;-78
2023/03/07 12:31:36;;;;;;;49.15;17.25;;;;;;;;;;5069058;28;20024;-78
2023/03/07 12:34:06;;;;;;;43.92;17.30;;;;;;;;;;5057473;28;20032;-77
2023/03/07 12:36:34;;;;;;;;;;;;;;;;;;5058103;28;20032;-78
2023/03/07 12:39:02;;;;;;;49.78;15.80;;;;;;;;;;5068472;28;19920;-79
2023/03/07 12:42:07;;;;;;;35.55;13.55;;;;;;;;;;5050413;28;20039;-77
2023/03/07 12:44:49;;;;;;;21.58;9.10;;;;;;;;;;5058062;28;20649;-80
2023/03/07 12:47:37;;;;;;;18.65;5.97;;;;;;;;;;5045329;28;20152;-76
2023/03/07 12:50:09;;;;;;;21.65;6.10;;;;;;;;;;5042356;28;20037;-79
2023/03/07 12:53:05;;;;;;;29.27;10.82;;;;;;;;;;5048902;28;20036;-78
2023/03/07 12:55:37;;;;;;;20.20;5.68;;;;;;;;;;5064438;28;20075;-79
2023/03/07 12:58:24;;;;;;;15.40;5.55;;;;;;;;;;5064638;28;20044;-79
2023/03/07 13:01:02;;;;;;;15.27;5.43;;;;;;;;;;5048105;28;20025;-79
2023/03/07 13:03:45;;;;;;;12.18;4.75;;;;;;;;;;5065395;28;20025;-80
2023/03/07 13:06:14;;;;;;;19.05;5.70;;;;;;;;;;5048869;28;20025;-80
2023/03/07 13:08:45;;;;;;;12.75;5.72;;;;;;;;;;5060591;28;20032;-79
2023/03/07 13:11:21;;;;;;;18.77;6.20;;;;;;;;;;5071794;28;20034;-79
2023/03/07 13:13:47;;;;;;;21.23;6.10;;;;;;;;;;5073903;28;20249;-79
2023/03/07 13:16:30;;;;;;;20.27;8.20;;;;;;;;;;5072986;28;20028;-79
2023/03/07 13:19:35;;;;;;;16.27;7.45;;;;;;;;;;5061571;28;20043;-79
2023/03/07 13:22:13;;;;;;;19.38;7.22;;;;;;;;;;5070499;28;20040;-79
2023/03/07 13:24:41;;;;;;;18.83;5.90;;;;;;;;;;5069193;28;20036;-78
2023/03/07 13:27:27;;;;;;;13.57;5.85;;;;;;;;;;5072315;28;20098;-79
2023/03/07 13:30:12;;;;;;;19.45;6.05;;;;;;;;;;5057713;28;20040;-79
2023/03/07 13:32:49;;;;;;;17.92;6.10;;;;;;;;;;5075781;28;20059;-79
2023/03/07 13:35:27;;;;;;;24.70;9.05;;;;;;;;;;5076544;28;20438;-80
2023/03/07 13:38:15;;;;;;;25.20;7.10;;;;;;;;;;5076170;28;20101;-79
2023/03/07 13:40:43;;;;;;;24.55;7.32;;;;;;;;;;5060826;28;20024;-79
2023/03/07 13:43:18;;;;;;;24.48;7.72;;;;;;;;;;5076122;28;20060;-79
2023/03/07 13:45:43;;;;;;;22.33;7.45;;;;;;;;;;5055572;28;20033;-79
2023/03/07 13:48:34;;;;;;;26.23;7.53;;;;;;;;;;5053792;28;20037;-79
2023/03/07 13:51:00;;;;;;;36.10;9.90;;;;;;;;;;5068039;28;20048;-80
2023/03/07 13:53:44;;;;;;;34.58;8.48;;;;;;;;;;5055671;28;20032;-80
2023/03/07 13:56:15;;;;;;;21.27;8.02;;;;;;;;;;5071959;28;20454;-80
2023/03/07 13:59:06;;;;;;;15.55;5.85;;;;;;;;;;5074579;28;20029;-79
2023/03/07 14:01:35;;;;;;;18.27;7.00;;;;;;;;;;5073565;28;20104;-78
2023/03/07 14:04:16;;;;;;;21.38;7.10;;;;;;;;;;5074568;28;20442;-80
2023/03/07 14:06:47;;;;;;;22.30;7.05;;;;;;;;;;5058735;28;20041;-78
2023/03/07 14:09:24;;;;;;;24.20;8.43;;;;;;;;;;5058241;28;20039;-78
2023/03/07 14:12:17;;;;;;;30.55;10.48;;;;;;;;;;5058082;28;20035;-78
2023/03/07 14:14:51;;;;;;;36.83;11.70;;;;;;;;;;5074948;28;20029;-78
2023/03/07 14:17:39;;;;;;;64.32;16.55;;;;;;;;;;5074312;28;20036;-78
2023/03/07 14:20:20;;;;;;;64.00;17.65;;;;;;;;;;5064853;28;20040;-78
2023/03/07 14:23:05;;;;;;;54.17;17.23;;;;;;;;;;5073886;28;20062;-78
2023/03/07 14:25:32;;;;;;;40.75;11.73;;;;;;;;;;5074900;28;20093;-79
2023/03/07 14:27:59;;;;;;;33.85;12.35;;;;;;;;;;5057453;28;20029;-78
2023/03/07 14:30:27;;;;;;;40.72;14.48;;;;;;;;;;5075248;28;20020;-78
2023/03/07 14:32:53;;;;;;;36.78;12.27;;;;;;;;;;5073830;28;20020;-79
2023/03/07 14:35:41;;;;;;;32.78;10.60;;;;;;;;;;5073927;28;20107;-79
2023/03/07 14:38:27;;;;;;;36.08;10.70;;;;;;;;;;5074879;28;20466;-79